Time;durP1;ratioP1;P1;durP2;ratioP2;P2;SDS_P1;SDS_P2;PMS_P1;PMS_P2;Temp;Humidity;BMP_temperature;BMP_pressure;BME280_temperature;BME280_humidity;BME280_pressure;Samples;Min_cycle;Max_cycle;Signal;HPM_P1;HPM_P2
2022/11/03 00:01:00;;;;;;;4.22;3.40;;;12.30;99.90;;;;;;5049321;28;20203;-73
2022/11/03 00:03:28;;;;;;;4.55;3.15;;;12.30;99.90;;;;;;5050173;28;20627;-73
2022/11/03 00:06:07;;;;;;;4.18;3.28;;;12.30;99.90;;;;;;5050117;28;20203;-74
2022/11/03 00:08:39;;;;;;;3.90;3.17;;;12.30;99.90;;;;;;5046639;28;20691;-73
2022/11/03 00:11:10;;;;;;;3.75;3.25;;;12.30;99.90;;;;;;5051472;28;20738;-73
2022/11/03 00:13:39;;;;;;;3.83;3.10;;;12.20;99.90;;;;;;5043984;28;20212;-73
2022/11/03 00:16:09;;;;;;;4.10;3.15;;;12.30;99.90;;;;;;5047721;28;20229;-73
2022/11/03 00:18:36;;;;;;;4.22;3.55;;;12.30;99.90;;;;;;5046831;28;20230;-72
2022/11/03 00:21:05;;;;;;;3.20;2.95;;;12.30;99.90;;;;;;5048960;28;20195;-72
2022/11/03 00:23:35;;;;;;;4.45;3.30;;;12.30;99.90;;;;;;5045581;28;20215;-72
2022/11/03 00:26:08;;;;;;;4.40;3.38;;;12.30;99.90;;;;;;5046989;28;20203;-73
2022/11/03 00:28:36;;;;;;;3.30;3.00;;;12.30;99.90;;;;;;5045414;28;20219;-73
2022/11/03 00:31:09;;;;;;;4.22;3.80;;;12.30;99.90;;;;;;5047394;28;20288;-73
2022/11/03 00:33:37;;;;;;;3.42;3.10;;;12.30;99.90;;;;;;5048484;28;20230;-74
2022/11/03 00:36:05;;;;;;;3.53;3.22;;;12.30;99.90;;;;;;5048627;28;20214;-73
2022/11/03 00:38:32;;;;;;;4.13;3.70;;;12.30;99.90;;;;;;5048855;28;20226;-73
2022/11/03 00:41:01;;;;;;;4.05;3.33;;;12.30;99.90;;;;;;5047051;28;20198;-74
2022/11/03 00:43:30;;;;;;;6.20;3.58;;;12.30;99.90;;;;;;5048049;28;20207;-73
2022/11/03 00:45:58;;;;;;;3.50;3.20;;;12.30;99.90;;;;;;5043401;28;20664;-73
2022/11/03 00:48:31;;;;;;;3.40;3.10;;;12.30;99.90;;;;;;5059826;28;20607;-73
2022/11/03 00:51:02;;;;;;;4.50;3.65;;;12.30;99.90;;;;;;5047423;28;20225;-73
2022/11/03 00:53:31;;;;;;;4.13;2.95;;;12.30;99.90;;;;;;5050279;28;20292;-73
2022/11/03 00:55:58;;;;;;;3.65;3.35;;;12.30;99.90;;;;;;5042966;28;20581;-73
2022/11/03 00:58:26;;;;;;;4.68;3.20;;;12.40;99.90;;;;;;5047222;28;20231;-73
2022/11/03 01:01:00;;;;;;;3.75;3.13;;;12.30;99.90;;;;;;5044463;28;20588;-73
2022/11/03 01:03:28;;;;;;;3.38;3.03;;;12.30;99.90;;;;;;5050053;28;20211;-73
2022/11/03 01:08:40;;;;;;;3.60;3.10;;;12.20;99.90;;;;;;5045062;28;20735;-73
2022/11/03 01:13:54;;;;;;;3.55;3.28;;;12.20;99.90;;;;;;5049571;28;20645;-75
2022/11/03 01:16:21;;;;;;;4.30;3.55;;;12.20;99.90;;;;;;5048869;28;20225;-75
2022/11/03 01:18:50;;;;;;;4.75;3.67;;;12.20;99.90;;;;;;5046471;28;20223;-74
2022/11/03 01:21:18;;;;;;;3.83;3.30;;;12.20;99.90;;;;;;5047235;28;20195;-75
2022/11/03 01:23:45;;;;;;;6.10;3.38;;;12.20;99.90;;;;;;5044847;28;20215;-75
2022/11/03 01:26:13;;;;;;;3.92;3.35;;;12.20;99.90;;;;;;5042494;28;20207;-74
2022/11/03 01:28:43;;;;;;;3.97;2.90;;;12.20;99.90;;;;;;5043158;28;20229;-74
2022/11/03 01:31:14;;;;;;;5.80;3.33;;;12.20;99.90;;;;;;5043663;28;20203;-75
2022/11/03 01:33:44;;;;;;;3.50;3.20;;;12.20;99.90;;;;;;5043433;28;20219;-73
2022/11/03 01:36:15;;;;;;;3.90;3.42;;;12.30;99.90;;;;;;5048287;28;20618;-74
2022/11/03 01:38:43;;;;;;;4.88;3.83;;;12.30;99.90;;;;;;5048840;28;20230;-74
2022/11/03 01:41:14;;;;;;;4.03;3.50;;;12.20;99.90;;;;;;5042892;28;20253;-74
2022/11/03 01:43:42;;;;;;;4.18;3.50;;;12.20;99.90;;;;;;5048581;28;20690;-74
2022/11/03 01:46:17;;;;;;;4.05;3.33;;;12.10;99.90;;;;;;5041685;28;20203;-74
2022/11/03 01:48:49;;;;;;;5.13;3.55;;;12.00;99.90;;;;;;5043053;28;20265;-72
2022/11/03 01:51:22;;;;;;;5.70;3.55;;;12.00;99.90;;;;;;5042413;28;20207;-74
2022/11/03 01:53:52;;;;;;;4.07;3.53;;;12.00;99.90;;;;;;5044290;28;20224;-74
2022/11/03 01:56:20;;;;;;;4.28;3.80;;;11.90;99.90;;;;;;5046903;28;20254;-74
2022/11/03 01:58:51;;;;;;;4.15;3.75;;;11.90;99.90;;;;;;5055684;28;20230;-74
2022/11/03 02:01:18;;;;;;;3.70;3.40;;;11.90;99.90;;;;;;5045721;28;20196;-73
2022/11/03 02:03:50;;;;;;;4.15;3.28;;;11.90;99.90;;;;;;5042855;28;20230;-74
2022/11/03 02:06:22;;;;;;;4.32;3.50;;;11.90;99.90;;;;;;5048574;28;20219;-74
2022/11/03 02:08:53;;;;;;;3.63;3.33;;;11.90;99.90;;;;;;5044391;28;20218;-74
2022/11/03 02:14:04;;;;;;;4.32;3.70;;;11.90;99.90;;;;;;5043525;28;20233;-74
2022/11/03 02:16:33;;;;;;;3.58;3.05;;;11.90;99.90;;;;;;5048759;28;20195;-73
2022/11/03 02:19:02;;;;;;;3.75;3.13;;;11.90;99.90;;;;;;5048684;28;20222;-74
2022/11/03 02:21:38;;;;;;;3.58;3.28;;;12.00;99.90;;;;;;5044811;28;20261;-74
2022/11/03 02:24:13;;;;;;;4.15;3.83;;;12.00;99.90;;;;;;5047840;28;20225;-74
2022/11/03 02:26:48;;;;;;;5.38;3.25;;;12.00;99.90;;;;;;5051250;28;20199;-74
2022/11/03 02:29:15;;;;;;;5.05;3.58;;;12.00;99.90;;;;;;5047395;28;20219;-73
2022/11/03 02:31:46;;;;;;;5.80;3.10;;;12.00;99.90;;;;;;5044353;28;20206;-73
2022/11/03 02:34:20;;;;;;;3.80;3.38;;;11.90;99.90;;;;;;5044060;28;20261;-73
2022/11/03 02:36:52;;;;;;;5.22;3.25;;;12.00;99.90;;;;;;5045540;28;20238;-73
2022/11/03 02:39:24;;;;;;;4.20;3.53;;;11.90;99.90;;;;;;5041491;28;20908;-73
2022/11/03 02:41:56;;;;;;;4.43;3.47;;;11.90;99.90;;;;;;5045033;28;20241;-74
2022/11/03 02:44:25;;;;;;;3.60;3.30;;;11.90;99.90;;;;;;5046350;28;20195;-72
2022/11/03 02:46:58;;;;;;;7.30;3.47;;;11.90;99.90;;;;;;5044148;28;20222;-73
2022/11/03 02:49:25;;;;;;;4.90;3.42;;;11.90;99.90;;;;;;5045289;28;20216;-73
2022/11/03 02:52:00;;;;;;;4.65;3.20;;;11.90;99.90;;;;;;5041916;28;20222;-73
2022/11/03 02:54:32;;;;;;;4.88;3.63;;;11.90;99.90;;;;;;5039268;28;20238;-73
2022/11/03 02:57:03;;;;;;;3.90;3.38;;;11.90;99.90;;;;;;5043133;28;20221;-73
2022/11/03 02:59:37;;;;;;;3.63;2.78;;;12.00;99.90;;;;;;5036566;28;20234;-73
2022/11/03 03:02:10;;;;;;;5.25;3.75;;;12.00;99.90;;;;;;5039213;28;20322;-74
2022/11/03 03:04:40;;;;;;;3.38;3.00;;;12.00;99.90;;;;;;5045483;28;20202;-73
2022/11/03 03:07:10;;;;;;;4.35;3.58;;;11.90;99.90;;;;;;5048209;28;20692;-75
2022/11/03 03:09:41;;;;;;;3.55;3.25;;;12.00;99.90;;;;;;5055313;28;20200;-74
2022/11/03 03:12:13;;;;;;;4.80;3.20;;;12.00;99.90;;;;;;5042717;28;20226;-74
2022/11/03 03:14:42;;;;;;;3.85;3.53;;;12.00;99.90;;;;;;5045637;28;20211;-74
2022/11/03 03:17:15;;;;;;;4.45;3.53;;;11.90;99.90;;;;;;5046478;28;20265;-74
2022/11/03 03:19:50;;;;;;;4.43;3.67;;;11.90;99.90;;;;;;5041376;28;20192;-73
2022/11/03 03:22:25;;;;;;;5.55;3.47;;;11.90;99.90;;;;;;5041127;28;20218;-74
2022/11/03 03:24:57;;;;;;;5.00;3.33;;;11.90;99.90;;;;;;5043186;28;20190;-74
2022/11/03 03:27:29;;;;;;;4.78;3.60;;;11.90;99.90;;;;;;5046719;28;20746;-74
2022/11/03 03:30:01;;;;;;;4.38;3.08;;;11.90;99.90;;;;;;5048173;28;20257;-75
2022/11/03 03:32:33;;;;;;;3.33;2.80;;;12.00;99.90;;;;;;5042671;28;20268;-73
2022/11/03 03:35:02;;;;;;;5.13;3.88;;;12.00;99.90;;;;;;5042304;28;20222;-73
2022/11/03 03:37:30;;;;;;;5.18;3.70;;;12.00;99.90;;;;;;5046411;28;20225;-73
2022/11/03 03:40:02;;;;;;;6.95;3.90;;;11.90;99.90;;;;;;5040569;28;20195;-73
2022/11/03 03:42:32;;;;;;;3.90;3.50;;;11.90;99.90;;;;;;5044948;28;20305;-73
2022/11/03 03:45:00;;;;;;;4.55;3.85;;;11.90;99.90;;;;;;5044810;28;20195;-73
2022/11/03 03:47:30;;;;;;;4.13;3.22;;;11.90;99.90;;;;;;5047501;28;20221;-73
2022/11/03 03:49:58;;;;;;;6.47;3.63;;;11.90;99.90;;;;;;5043771;28;20199;-73
2022/11/03 03:52:26;;;;;;;4.25;2.80;;;11.90;99.90;;;;;;5047756;28;20211;-73
2022/11/03 03:54:54;;;;;;;4.63;3.33;;;11.90;99.90;;;;;;5044476;28;20223;-73
2022/11/03 03:57:24;;;;;;;4.25;3.15;;;11.90;99.90;;;;;;5042617;28;20222;-73
2022/11/03 03:59:53;;;;;;;5.13;3.40;;;11.90;99.90;;;;;;5046294;28;20444;-73
2022/11/03 04:02:21;;;;;;;5.05;3.65;;;11.90;99.90;;;;;;5046642;28;20738;-73
2022/11/03 04:04:48;;;;;;;4.00;3.10;;;11.90;99.90;;;;;;5044239;28;20199;-73
2022/11/03 04:10:00;;;;;;;4.13;3.33;;;11.90;99.90;;;;;;5046836;28;20761;-73
2022/11/03 04:23:29;;;;;;;4.10;3.10;;;11.90;99.90;;;;;;5045729;28;20221;-73
2022/11/03 04:25:57;;;;;;;5.32;3.20;;;11.80;99.90;;;;;;5035495;28;20195;-74
2022/11/03 04:28:25;;;;;;;5.43;3.13;;;11.80;99.90;;;;;;5046752;28;20222;-74
2022/11/03 04:30:58;;;;;;;6.82;3.88;;;11.90;99.90;;;;;;5043643;28;20214;-74
2022/11/03 04:33:25;;;;;;;6.13;3.92;;;11.80;99.90;;;;;;5044327;28;20243;-73
2022/11/03 04:35:55;;;;;;;6.78;3.25;;;11.80;99.90;;;;;;5048884;28;20219;-72
2022/11/03 04:38:24;;;;;;;3.95;3.22;;;11.80;99.90;;;;;;5042319;28;20223;-73
2022/11/03 04:40:55;;;;;;;5.88;3.65;;;11.70;99.90;;;;;;5051061;28;20203;-74
2022/11/03 04:43:28;;;;;;;4.45;3.70;;;11.70;99.90;;;;;;5052655;28;20223;-73
2022/11/03 04:45:57;;;;;;;4.38;3.47;;;11.70;99.90;;;;;;5050192;28;20281;-74
2022/11/03 04:48:27;;;;;;;4.40;3.67;;;11.70;99.90;;;;;;5045704;28;20235;-74
2022/11/03 04:50:56;;;;;;;5.75;3.55;;;11.70;99.90;;;;;;5045176;28;20198;-74
2022/11/03 04:53:24;;;;;;;5.57;3.75;;;11.70;99.90;;;;;;5049537;28;20265;-73
2022/11/03 04:55:54;;;;;;;4.28;3.30;;;11.70;99.90;;;;;;5047444;28;20227;-74
2022/11/03 04:58:22;;;;;;;4.88;3.22;;;11.70;99.90;;;;;;5047925;28;20227;-74
2022/11/03 05:00:52;;;;;;;3.90;3.60;;;11.70;99.90;;;;;;5048656;28;20205;-74
2022/11/03 05:03:25;;;;;;;4.88;3.33;;;11.70;99.90;;;;;;5047537;28;20965;-74
2022/11/03 05:05:52;;;;;;;4.78;3.42;;;11.70;99.90;;;;;;5048481;28;20191;-74
2022/11/03 05:08:21;;;;;;;6.50;3.45;;;11.70;99.90;;;;;;5045510;28;20215;-74
2022/11/03 05:10:49;;;;;;;4.13;3.72;;;11.70;99.90;;;;;;5045076;28;20191;-73
2022/11/03 05:13:21;;;;;;;5.63;4.20;;;11.70;99.90;;;;;;5051200;28;20298;-74
2022/11/03 05:15:49;;;;;;;4.53;3.58;;;11.70;99.90;;;;;;5047434;28;20237;-74
2022/11/03 05:18:23;;;;;;;4.68;4.28;;;11.60;99.90;;;;;;5050388;28;20230;-74
2022/11/03 05:20:54;;;;;;;5.25;4.10;;;11.60;99.90;;;;;;5047958;28;20199;-74
2022/11/03 05:23:22;;;;;;;5.55;4.00;;;11.60;99.90;;;;;;5043701;28;20227;-73
2022/11/03 05:25:53;;;;;;;5.80;3.92;;;11.60;99.90;;;;;;5049994;28;20198;-74
2022/11/03 05:28:25;;;;;;;4.47;4.07;;;11.60;99.90;;;;;;5051024;28;20222;-74
2022/11/03 05:30:53;;;;;;;5.65;3.78;;;11.60;99.90;;;;;;5057719;28;20609;-74
2022/11/03 05:33:27;;;;;;;3.75;3.30;;;11.50;99.90;;;;;;5045632;28;20222;-73
2022/11/03 05:35:56;;;;;;;5.43;4.15;;;11.50;99.90;;;;;;5044771;28;20707;-74
2022/11/03 05:38:24;;;;;;;6.18;4.05;;;11.50;99.90;;;;;;5040795;28;20241;-73
2022/11/03 05:40:53;;;;;;;4.10;3.35;;;11.50;99.90;;;;;;5042169;28;20584;-74
2022/11/03 05:43:21;;;;;;;6.20;3.67;;;11.50;99.90;;;;;;5042897;28;20280;-74
2022/11/03 05:45:53;;;;;;;3.22;2.72;;;11.50;99.90;;;;;;5051416;28;20672;-74
2022/11/03 05:48:28;;;;;;;5.60;3.80;;;11.50;99.90;;;;;;5049110;28;20237;-73
2022/11/03 05:50:59;;;;;;;4.35;3.85;;;11.50;99.90;;;;;;5044744;28;20206;-73
2022/11/03 05:53:30;;;;;;;3.88;3.45;;;11.50;99.90;;;;;;5041011;28;20212;-74
2022/11/03 05:56:01;;;;;;;3.45;3.15;;;11.60;99.90;;;;;;5046449;28;20779;-74
2022/11/03 05:58:32;;;;;;;6.38;3.45;;;11.60;99.90;;;;;;5042352;28;20223;-74
2022/11/03 06:01:03;;;;;;;4.25;3.45;;;11.60;99.90;;;;;;5043527;28;20210;-74
2022/11/03 06:03:36;;;;;;;4.95;3.55;;;11.60;99.90;;;;;;5045086;28;20222;-74
2022/11/03 06:06:15;;;;;;;6.93;3.90;;;11.60;99.90;;;;;;5045839;28;20673;-74
2022/11/03 06:08:43;;;;;;;5.30;3.50;;;11.60;99.90;;;;;;5048430;28;20226;-75
2022/11/03 06:11:25;;;;;;;7.05;4.45;;;11.60;99.90;;;;;;5049783;28;20265;-74
2022/11/03 06:13:53;;;;;;;4.97;4.18;;;11.60;99.90;;;;;;5048823;28;20242;-74
2022/11/03 06:16:37;;;;;;;4.03;3.53;;;11.50;99.90;;;;;;5048679;28;20306;-75
2022/11/03 06:19:23;;;;;;;5.50;4.20;;;11.50;99.90;;;;;;5040734;28;20278;-73
2022/11/03 06:21:54;;;;;;;4.97;3.75;;;11.60;99.90;;;;;;5046934;28;20226;-74
2022/11/03 06:24:24;;;;;;;4.20;3.83;;;11.60;99.90;;;;;;5043543;28;20203;-73
2022/11/03 06:26:52;;;;;;;4.78;4.20;;;11.70;99.90;;;;;;5047421;28;20224;-73
2022/11/03 06:29:21;;;;;;;5.97;3.92;;;11.70;99.90;;;;;;5043200;28;20250;-73
2022/11/03 06:31:49;;;;;;;4.07;3.67;;;11.70;99.90;;;;;;5042838;28;20549;-73
2022/11/03 06:34:30;;;;;;;4.55;3.97;;;11.70;99.90;;;;;;5046308;28;20206;-73
2022/11/03 06:37:02;;;;;;;4.50;4.10;;;11.70;99.90;;;;;;5043475;28;20246;-73
2022/11/03 06:39:38;;;;;;;6.07;4.35;;;11.70;99.90;;;;;;5046042;28;20658;-74
2022/11/03 06:42:14;;;;;;;5.35;4.40;;;11.70;99.90;;;;;;5047477;28;20241;-73
2022/11/03 06:44:47;;;;;;;6.35;4.53;;;11.70;99.90;;;;;;5046274;28;20638;-73
2022/11/03 06:47:32;;;;;;;4.20;3.75;;;11.70;99.90;;;;;;5041855;28;20229;-73
2022/11/03 06:50:20;;;;;;;6.15;3.92;;;11.70;99.90;;;;;;5044923;28;20287;-74
2022/11/03 06:52:58;;;;;;;5.20;4.22;;;11.80;99.90;;;;;;5050453;28;20625;-74
2022/11/03 06:55:32;;;;;;;5.20;4.70;;;11.90;99.90;;;;;;5048346;28;20222;-74
2022/11/03 06:58:08;;;;;;;6.25;5.10;;;12.20;99.90;;;;;;5047211;28;20719;-74
2022/11/03 07:00:43;;;;;;;8.10;4.78;;;12.50;99.90;;;;;;5039026;28;20203;-73
2022/11/03 07:03:20;;;;;;;6.30;4.88;;;12.70;99.90;;;;;;5044621;28;20229;-74
2022/11/03 07:05:51;;;;;;;7.88;5.05;;;12.90;99.90;;;;;;5047122;28;20229;-73
2022/11/03 07:08:25;;;;;;;6.72;4.93;;;13.10;99.90;;;;;;5045419;28;20222;-74
2022/11/03 07:11:09;;;;;;;8.25;4.68;;;13.30;99.90;;;;;;5040715;28;20864;-74
2022/11/03 07:13:42;;;;;;;4.95;4.35;;;13.50;99.90;;;;;;5044489;28;20707;-74
2022/11/03 07:16:20;;;;;;;5.00;4.43;;;13.60;99.90;;;;;;5051372;28;20223;-74
2022/11/03 07:18:49;;;;;;;5.63;4.60;;;13.70;99.90;;;;;;5048156;28;20223;-74
2022/11/03 07:21:32;;;;;;;6.68;4.93;;;13.60;99.90;;;;;;5047575;28;20203;-74
2022/11/03 07:24:01;;;;;;;7.65;4.88;;;13.60;99.90;;;;;;5051274;28;20210;-73
2022/11/03 07:26:29;;;;;;;5.65;4.38;;;13.80;99.90;;;;;;5045016;28;20195;-74
2022/11/03 07:28:56;;;;;;;6.32;4.40;;;13.90;99.90;;;;;;5020502;28;20231;-73
2022/11/03 07:31:26;;;;;;;5.55;4.20;;;13.90;99.90;;;;;;5024733;28;20211;-73
2022/11/03 07:33:58;;;;;;;4.85;4.32;;;13.90;99.90;;;;;;5030639;28;20258;-75
2022/11/03 07:36:31;;;;;;;4.63;4.15;;;13.90;99.90;;;;;;5022004;28;20311;-74
2022/11/03 07:39:02;;;;;;;5.75;4.88;;;13.80;99.90;;;;;;5043599;28;20309;-75
2022/11/03 07:41:33;;;;;;;5.72;4.43;;;13.60;99.90;;;;;;5051787;28;20201;-75
2022/11/03 07:44:02;;;;;;;6.60;4.35;;;13.40;99.90;;;;;;5052741;28;20263;-75
2022/11/03 07:46:29;;;;;;;7.63;4.75;;;13.20;99.90;;;;;;5050380;28;20198;-74
2022/11/03 07:48:58;;;;;;;8.05;4.57;;;13.00;99.90;;;;;;5033394;28;20608;-74
2022/11/03 07:51:30;;;;;;;6.25;4.95;;;12.80;99.90;;;;;;5043438;28;20191;-74
2022/11/03 07:54:03;;;;;;;5.72;5.13;;;12.70;99.90;;;;;;5036557;28;20306;-73
2022/11/03 07:56:35;;;;;;;6.65;4.95;;;12.60;99.90;;;;;;5041497;28;20223;-75
2022/11/03 07:59:16;;;;;;;5.97;4.43;;;12.50;99.90;;;;;;5046667;28;20218;-73
2022/11/03 08:01:45;;;;;;;6.35;4.78;;;12.50;99.90;;;;;;5043523;28;20195;-74
2022/11/03 08:04:18;;;;;;;5.32;4.80;;;12.50;99.90;;;;;;5038976;28;20195;-74
2022/11/03 08:06:48;;;;;;;8.82;5.00;;;12.60;99.90;;;;;;5040652;28;20203;-73
2022/11/03 08:09:16;;;;;;;6.70;5.30;;;12.60;99.90;;;;;;5044973;28;20251;-74
2022/11/03 08:11:43;;;;;;;6.13;4.20;;;12.60;99.90;;;;;;5046734;28;20202;-74
2022/11/03 08:14:10;;;;;;;5.10;4.07;;;12.70;99.90;;;;;;5048279;28;20207;-74
2022/11/03 08:16:38;;;;;;;5.85;4.60;;;12.70;99.90;;;;;;5050834;28;20227;-73
2022/11/03 08:19:06;;;;;;;6.18;4.88;;;12.80;99.90;;;;;;5048420;28;20235;-73
2022/11/03 08:21:34;;;;;;;5.57;4.30;;;12.90;99.90;;;;;;5044726;28;20645;-73
2022/11/03 08:24:03;;;;;;;5.53;4.97;;;12.90;99.90;;;;;;5045725;28;20194;-74
2022/11/03 08:26:30;;;;;;;5.60;4.25;;;12.90;99.90;;;;;;5048813;28;20568;-73
2022/11/03 08:28:58;;;;;;;4.88;4.18;;;13.00;99.90;;;;;;5044938;28;20234;-74
2022/11/03 08:31:25;;;;;;;6.85;5.18;;;13.10;99.90;;;;;;5037971;28;20203;-73
2022/11/03 08:33:53;;;;;;;6.50;5.75;;;13.10;99.90;;;;;;5039859;28;20308;-74
2022/11/03 08:36:21;;;;;;;6.63;5.40;;;13.10;99.90;;;;;;5045000;28;20214;-75
2022/11/03 08:38:48;;;;;;;10.88;5.90;;;13.10;99.90;;;;;;5038676;28;20246;-74
2022/11/03 08:41:17;;;;;;;7.22;5.15;;;13.10;99.90;;;;;;5043850;28;20199;-74
2022/11/03 08:43:44;;;;;;;5.20;4.57;;;13.00;99.90;;;;;;5039122;28;20348;-75
2022/11/03 08:46:12;;;;;;;6.82;4.97;;;12.90;99.90;;;;;;5041051;28;20191;-75
2022/11/03 08:48:40;;;;;;;5.85;4.60;;;12.80;99.90;;;;;;5040411;28;20222;-74
2022/11/03 08:51:09;;;;;;;5.60;4.80;;;12.70;99.90;;;;;;5046939;28;20209;-75
2022/11/03 08:53:37;;;;;;;6.88;5.20;;;12.70;99.90;;;;;;5038779;28;20219;-74
2022/11/03 08:56:04;;;;;;;5.75;4.90;;;12.70;99.90;;;;;;5043749;28;20765;-75
2022/11/03 08:58:33;;;;;;;7.90;5.25;;;12.70;99.90;;;;;;5047281;28;20215;-75
2022/11/03 09:01:01;;;;;;;9.23;5.50;;;12.70;99.90;;;;;;5061460;28;20232;-76
2022/11/03 09:03:28;;;;;;;6.60;5.10;;;12.60;99.90;;;;;;5049437;28;20226;-75
2022/11/03 09:05:55;;;;;;;7.13;5.15;;;12.50;99.90;;;;;;5043364;28;20682;-77
2022/11/03 09:08:23;;;;;;;6.47;5.35;;;12.40;99.90;;;;;;5046612;28;20238;-75
2022/11/03 09:10:50;;;;;;;6.03;5.38;;;12.50;99.90;;;;;;5044002;28;20817;-75
2022/11/03 09:13:18;;;;;;;6.63;4.80;;;12.50;99.90;;;;;;5042203;28;20234;-74
2022/11/03 09:15:46;;;;;;;7.85;5.47;;;12.60;99.90;;;;;;5041177;28;20622;-75
2022/11/03 09:18:15;;;;;;;8.98;5.72;;;12.70;99.90;;;;;;5052988;28;20222;-74
2022/11/03 09:20:42;;;;;;;6.10;5.00;;;12.90;99.90;;;;;;5056362;28;20289;-75
2022/11/03 09:23:10;;;;;;;6.75;4.85;;;13.00;99.90;;;;;;5033977;28;20228;-74
2022/11/03 09:25:37;;;;;;;8.00;5.45;;;13.10;99.90;;;;;;5024824;28;20200;-74
2022/11/03 09:28:05;;;;;;;7.35;5.30;;;13.30;99.90;;;;;;5023337;28;20243;-74
2022/11/03 09:30:32;;;;;;;6.22;5.47;;;13.50;99.90;;;;;;5023426;28;20203;-74
2022/11/03 09:33:01;;;;;;;7.35;5.43;;;13.70;99.90;;;;;;5019265;28;20751;-75
2022/11/03 09:35:30;;;;;;;7.05;5.88;;;14.20;99.90;;;;;;5025025;28;20283;-75
2022/11/03 09:37:57;;;;;;;7.95;5.75;;;14.50;99.90;;;;;;5025524;28;20219;-75
2022/11/03 09:40:25;;;;;;;7.75;5.43;;;14.60;99.90;;;;;;5024402;28;20507;-74
2022/11/03 09:42:53;;;;;;;8.35;4.97;;;15.00;99.90;;;;;;5022795;28;20219;-75
2022/11/03 09:45:21;;;;;;;7.00;5.22;;;15.20;99.90;;;;;;5023758;28;21265;-75
2022/11/03 09:47:48;;;;;;;8.63;5.45;;;15.30;99.90;;;;;;5023566;28;20640;-75
2022/11/03 09:50:20;;;;;;;8.65;6.13;;;15.70;99.90;;;;;;5019132;28;20196;-74
2022/11/03 09:52:50;;;;;;;8.68;6.10;;;16.10;99.90;;;;;;5023466;28;20215;-75
2022/11/03 09:55:22;;;;;;;6.78;5.15;;;16.20;99.90;;;;;;5026135;28;20204;-75
2022/11/03 09:57:52;;;;;;;7.95;5.97;;;16.20;99.90;;;;;;5025578;28;20219;-75
2022/11/03 10:00:21;;;;;;;9.38;5.97;;;16.50;99.90;;;;;;5020616;28;20195;-75
2022/11/03 10:02:49;;;;;;;8.73;6.07;;;17.30;99.90;;;;;;5022210;28;20228;-74
2022/11/03 10:05:24;;;;;;;9.38;6.22;;;17.80;99.90;;;;;;5024417;28;20261;-75
2022/11/03 10:07:55;;;;;;;8.38;5.35;;;18.10;99.90;;;;;;5024435;28;20595;-75
2022/11/03 10:10:22;;;;;;;8.23;5.20;;;18.40;99.90;;;;;;5025495;28;20202;-75
2022/11/03 10:12:52;;;;;;;8.38;5.65;;;18.50;99.90;;;;;;5044345;28;20223;-75
2022/11/03 10:15:21;;;;;;;7.28;5.78;;;18.00;99.90;;;;;;5026988;28;20254;-75
2022/11/03 10:17:49;;;;;;;7.60;4.65;;;17.60;99.90;;;;;;5025914;28;20250;-74
2022/11/03 10:20:20;;;;;;;9.45;6.15;;;17.10;99.90;;;;;;5023627;28;20261;-75
2022/11/03 10:22:52;;;;;;;8.85;5.18;;;16.90;99.90;;;;;;5020806;28;20223;-75
2022/11/03 10:25:33;;;;;;;9.63;4.93;;;17.10;99.90;;;;;;5025164;28;20253;-74
2022/11/03 10:28:27;;;;;;;7.25;5.47;;;17.50;99.90;;;;;;5016426;28;20227;-75
2022/11/03 10:30:58;;;;;;;6.32;4.43;;;17.90;99.90;;;;;;4999970;28;20660;-75
2022/11/03 10:33:31;;;;;;;7.50;4.85;;;18.10;99.90;;;;;;5016739;28;20216;-75
2022/11/03 10:36:01;;;;;;;5.80;4.70;;;18.20;99.90;;;;;;5022154;28;20299;-74
2022/11/03 10:38:30;;;;;;;8.15;5.45;;;18.30;99.90;;;;;;5016498;28;20232;-75
2022/11/03 10:41:11;;;;;;;10.77;5.30;;;18.00;99.90;;;;;;5021048;28;20416;-75
2022/11/03 10:43:39;;;;;;;8.55;5.65;;;17.70;99.90;;;;;;5020832;28;20218;-75
2022/11/03 10:46:12;;;;;;;6.78;4.60;;;17.40;99.90;;;;;;5022836;28;20661;-74
2022/11/03 10:48:40;;;;;;;6.95;4.70;;;17.00;99.90;;;;;;5021155;28;20251;-75
2022/11/03 10:51:12;;;;;;;7.88;5.15;;;16.50;99.90;;;;;;5023268;28;20307;-74
2022/11/03 10:53:41;;;;;;;7.75;4.57;;;16.10;99.90;;;;;;5024237;28;20222;-74
2022/11/03 10:56:09;;;;;;;8.90;5.05;;;15.70;99.90;;;;;;5022186;28;20257;-76
2022/11/03 10:58:36;;;;;;;7.32;5.05;;;15.50;99.90;;;;;;5024609;28;20357;-75
2022/11/03 11:01:06;;;;;;;6.30;4.53;;;15.40;99.90;;;;;;5020480;28;20210;-75
2022/11/03 11:03:35;;;;;;;7.32;4.47;;;15.50;99.90;;;;;;5023699;28;20504;-75
2022/11/03 11:06:02;;;;;;;5.07;4.57;;;15.60;99.90;;;;;;5025136;28;20199;-74
2022/11/03 11:08:32;;;;;;;6.22;4.35;;;15.50;99.90;;;;;;5022713;28;20262;-74
2022/11/03 11:11:06;;;;;;;6.22;5.00;;;15.40;99.90;;;;;;5021088;28;20218;-75
2022/11/03 11:13:35;;;;;;;6.82;4.75;;;15.40;99.90;;;;;;5022635;28;20718;-74
2022/11/03 11:16:05;;;;;;;6.32;4.60;;;15.30;99.90;;;;;;5021370;28;20720;-74
2022/11/03 11:19:02;;;;;;;6.75;4.90;;;15.30;99.90;;;;;;5023990;28;20604;-74
2022/11/03 11:22:05;;;;;;;5.93;4.88;;;15.10;99.90;;;;;;5029115;28;20176;-74
2022/11/03 11:25:02;;;;;;;8.05;4.75;;;15.10;99.90;;;;;;5022756;28;20850;-75
2022/11/03 11:27:57;;;;;;;6.35;4.82;;;15.20;99.90;;;;;;5019718;28;20222;-74
2022/11/03 11:31:04;;;;;;;7.15;4.57;;;15.40;99.90;;;;;;5020639;28;20786;-78
2022/11/03 11:33:36;;;;;;;8.23;4.63;;;15.70;99.90;;;;;;5018462;28;20223;-77
2022/11/03 11:36:28;;;;;;;6.30;5.03;;;15.90;99.90;;;;;;5024302;28;20200;-76
2022/11/03 11:38:59;;;;;;;7.22;4.75;;;16.10;99.90;;;;;;5020674;28;20688;-76
2022/11/03 11:42:03;;;;;;;8.18;4.70;;;16.20;99.90;;;;;;5020236;28;20230;-77
2022/11/03 11:44:58;;;;;;;7.43;5.55;;;16.00;99.90;;;;;;5043707;28;20621;-77
2022/11/03 11:47:31;;;;;;;7.90;4.88;;;15.80;99.90;;;;;;5035164;28;20223;-77
2022/11/03 11:50:32;;;;;;;9.02;5.57;;;15.70;99.90;;;;;;5045040;28;20194;-77
2022/11/03 11:53:10;;;;;;;9.10;6.03;;;15.80;99.90;;;;;;5040691;28;20228;-77
2022/11/03 11:55:49;;;;;;;7.32;4.90;;;15.60;99.90;;;;;;5036791;28;20200;-77
2022/11/03 11:58:21;;;;;;;7.93;5.13;;;15.60;99.90;;;;;;5045594;28;20222;-77
2022/11/03 12:00:57;;;;;;;9.95;5.82;;;16.20;99.90;;;;;;5046328;28;20832;-77
2022/11/03 12:03:32;;;;;;;6.13;5.40;;;16.50;99.90;;;;;;5056970;28;20226;-77
2022/11/03 12:05:59;;;;;;;6.72;5.15;;;16.40;99.90;;;;;;5042161;28;20199;-78
2022/11/03 12:08:30;;;;;;;7.78;5.55;;;16.30;99.90;;;;;;5049476;28;20690;-78
2022/11/03 12:11:00;;;;;;;8.35;5.18;;;16.30;99.90;;;;;;5054592;28;20247;-77
2022/11/03 12:13:52;;;;;;;6.72;5.22;;;16.20;99.90;;;;;;5044426;28;20218;-77
2022/11/03 12:16:35;;;;;;;6.88;4.65;;;16.10;99.90;;;;;;5039641;28;20201;-77
2022/11/03 12:19:37;;;;;;;8.15;5.22;;;16.20;99.90;;;;;;5045341;28;20226;-77
2022/11/03 12:22:06;;;;;;;7.32;4.97;;;16.30;99.90;;;;;;5040454;28;20259;-76
2022/11/03 12:24:47;;;;;;;5.95;5.00;;;16.40;99.90;;;;;;5022603;28;20203;-78
2022/11/03 12:27:21;;;;;;;6.53;4.22;;;16.70;99.90;;;;;;5027387;28;20250;-78
2022/11/03 12:29:48;;;;;;;8.43;5.60;;;17.00;99.90;;;;;;5024096;28;20199;-74
2022/11/03 12:32:18;;;;;;;9.10;5.20;;;17.30;99.90;;;;;;5031067;28;20223;-77
2022/11/03 12:34:45;;;;;;;15.57;9.73;;;17.50;99.90;;;;;;5031996;28;20196;-77
2022/11/03 12:37:13;;;;;;;11.45;6.88;;;17.70;99.90;;;;;;5025384;28;20293;-78
2022/11/03 12:39:40;;;;;;;9.57;5.85;;;17.90;99.90;;;;;;5022305;28;20197;-78
2022/11/03 12:42:08;;;;;;;9.02;5.47;;;17.90;99.90;;;;;;5022610;28;20220;-77
2022/11/03 12:44:36;;;;;;;8.65;5.90;;;17.80;99.90;;;;;;5021524;28;20196;-78
2022/11/03 12:47:04;;;;;;;9.10;5.93;;;17.60;99.90;;;;;;5019601;28;20227;-77
2022/11/03 12:49:32;;;;;;;6.90;5.22;;;17.70;99.90;;;;;;5021989;28;20657;-76
2022/11/03 12:52:05;;;;;;;7.55;5.20;;;17.60;99.90;;;;;;5020634;28;20793;-73
2022/11/03 12:54:33;;;;;;;6.72;5.10;;;17.50;99.90;;;;;;5019101;28;20544;-76
2022/11/03 12:57:00;;;;;;;8.02;5.05;;;17.40;99.90;;;;;;5029063;28;20329;-75
2022/11/03 12:59:28;;;;;;;8.18;5.13;;;17.50;99.90;;;;;;5042201;28;20607;-74
2022/11/03 13:01:56;;;;;;;6.75;4.85;;;17.60;99.90;;;;;;5036107;28;20223;-74
2022/11/03 13:04:23;;;;;;;7.03;5.43;;;17.60;99.90;;;;;;5026739;28;20207;-74
2022/11/03 13:06:52;;;;;;;8.65;4.95;;;17.80;99.90;;;;;;5017561;28;20227;-75
2022/11/03 13:09:20;;;;;;;8.98;4.93;;;17.90;99.90;;;;;;5020868;28;20227;-75
2022/11/03 13:14:31;;;;;;;7.75;5.85;;;18.00;99.90;;;;;;5042410;28;20202;-75
2022/11/03 13:16:59;;;;;;;8.85;5.35;;;17.90;99.90;;;;;;5049485;28;20222;-76
2022/11/03 13:19:26;;;;;;;6.13;4.72;;;17.80;99.90;;;;;;5044450;28;20196;-75
2022/11/03 13:21:55;;;;;;;6.35;4.85;;;17.90;99.90;;;;;;5043849;28;20222;-74
2022/11/03 13:24:23;;;;;;;6.75;5.35;;;18.00;99.90;;;;;;5046473;28;20583;-74
2022/11/03 13:26:51;;;;;;;6.97;4.60;;;18.00;99.90;;;;;;5027784;28;20313;-75
2022/11/03 13:29:20;;;;;;;8.68;5.13;;;18.00;99.90;;;;;;5045525;28;20611;-76
2022/11/03 13:31:47;;;;;;;7.88;4.90;;;17.90;99.90;;;;;;5035324;28;20207;-76